createdAt,value
2018-05-09T00:02:00.777Z,17.50
2018-05-09T00:04:29.133Z,17.50
2018-05-09T00:06:58.162Z,17.40
2018-05-09T00:09:26.464Z,17.40
2018-05-09T00:11:55.513Z,17.40
2018-05-09T00:14:23.726Z,17.30
2018-05-09T00:16:51.997Z,17.30
2018-05-09T00:19:20.251Z,17.30
2018-05-09T00:21:48.559Z,17.30
2018-05-09T00:24:16.830Z,17.20
2018-05-09T00:26:45.076Z,17.20
2018-05-09T00:29:13.357Z,17.20
2018-05-09T00:31:41.641Z,17.10
2018-05-09T00:34:10.272Z,17.10
2018-05-09T00:36:38.524Z,17.10
2018-05-09T00:39:06.800Z,17.10
2018-05-09T00:41:35.082Z,17.00
2018-05-09T00:44:03.330Z,17.00
2018-05-09T00:46:31.624Z,17.00
2018-05-09T00:48:59.883Z,17.00
2018-05-09T00:51:28.160Z,17.00
2018-05-09T00:54:08.426Z,17.00
2018-05-09T00:56:36.688Z,17.00
2018-05-09T00:59:05.753Z,16.90
2018-05-09T01:01:34.015Z,16.90
2018-05-09T01:04:02.348Z,16.90
2018-05-09T01:06:30.613Z,16.90
2018-05-09T01:08:59.643Z,16.80
2018-05-09T01:11:27.920Z,16.70
2018-05-09T01:13:56.189Z,16.70
2018-05-09T01:16:24.469Z,16.70
2018-05-09T01:18:52.741Z,16.70
2018-05-09T01:21:21.030Z,16.70
2018-05-09T01:23:49.312Z,16.80
2018-05-09T01:26:17.692Z,16.80
2018-05-09T01:28:45.861Z,16.90
2018-05-09T01:31:14.712Z,17.00
2018-05-09T01:33:42.995Z,16.90
2018-05-09T01:36:12.056Z,16.90
2018-05-09T01:38:40.325Z,16.90
2018-05-09T01:41:08.574Z,16.90
2018-05-09T01:43:36.869Z,16.90
2018-05-09T01:46:05.126Z,16.80
2018-05-09T01:48:33.424Z,16.70
2018-05-09T01:51:01.711Z,16.70
2018-05-09T01:53:29.979Z,16.60
2018-05-09T01:55:59.090Z,16.60
2018-05-09T01:58:27.366Z,16.50
2018-05-09T02:00:55.704Z,16.60
2018-05-09T02:03:24.742Z,16.60
2018-05-09T02:05:53.032Z,16.60
2018-05-09T02:08:21.286Z,16.60
2018-05-09T02:10:49.552Z,16.70
2018-05-09T02:13:17.861Z,16.70
2018-05-09T02:15:46.112Z,16.70
2018-05-09T02:18:14.399Z,16.70
2018-05-09T02:20:43.379Z,16.80
2018-05-09T02:23:11.682Z,16.80
2018-05-09T02:25:39.977Z,16.80
2018-05-09T02:28:08.246Z,16.90
2018-05-09T02:30:36.645Z,16.90
2018-05-09T02:33:05.673Z,16.90
2018-05-09T02:35:33.960Z,16.90
2018-05-09T02:38:02.218Z,17.00
2018-05-09T02:40:31.258Z,17.00
2018-05-09T02:42:59.515Z,17.00
2018-05-09T02:45:27.807Z,17.00
2018-05-09T02:47:56.069Z,17.00
2018-05-09T02:50:24.314Z,17.10
2018-05-09T02:52:53.366Z,17.10
2018-05-09T02:55:21.638Z,17.00
2018-05-09T02:57:49.915Z,17.10
2018-05-09T03:00:18.168Z,17.10
2018-05-09T03:02:46.466Z,17.00
2018-05-09T03:05:14.747Z,17.00
2018-05-09T03:07:43.029Z,17.00
2018-05-09T03:10:11.359Z,16.90
2018-05-09T03:12:40.558Z,16.80
2018-05-09T03:15:08.814Z,16.70
2018-05-09T03:17:37.061Z,16.60
2018-05-09T03:20:05.338Z,16.60
2018-05-09T03:22:33.594Z,16.50
2018-05-09T03:25:01.892Z,16.40
2018-05-09T03:27:30.159Z,16.40
2018-05-09T03:29:58.437Z,16.30
2018-05-09T03:32:26.716Z,16.30
2018-05-09T03:34:54.987Z,16.20
2018-05-09T03:37:23.305Z,16.20
2018-05-09T03:39:54.695Z,16.20
2018-05-09T03:42:23.656Z,16.20
2018-05-09T03:44:51.901Z,16.10
2018-05-09T03:47:20.185Z,16.10
2018-05-09T03:49:48.471Z,16.10
2018-05-09T03:52:16.731Z,16.00
2018-05-09T03:54:45.001Z,16.00
2018-05-09T03:57:13.262Z,16.00
2018-05-09T03:59:41.556Z,16.00
2018-05-09T04:02:21.715Z,16.00
2018-05-09T04:05:02.622Z,16.10
2018-05-09T04:07:42.589Z,16.10
2018-05-09T04:10:11.656Z,16.20
2018-05-09T04:12:39.974Z,16.20
2018-05-09T04:15:08.994Z,16.30
2018-05-09T04:17:37.293Z,16.30
2018-05-09T04:20:05.538Z,16.30
2018-05-09T04:22:34.675Z,16.40
2018-05-09T04:25:02.962Z,16.50
2018-05-09T04:27:31.300Z,16.50
2018-05-09T04:29:59.564Z,16.60
2018-05-09T04:32:27.956Z,16.60
2018-05-09T04:34:57.004Z,16.70
2018-05-09T04:37:25.287Z,16.70
2018-05-09T04:39:53.582Z,16.80
2018-05-09T04:42:21.870Z,16.80
2018-05-09T04:44:50.164Z,16.90
2018-05-09T04:47:21.436Z,17.00
2018-05-09T04:49:49.725Z,17.00
2018-05-09T04:52:17.986Z,17.10
2018-05-09T04:54:46.284Z,17.20
2018-05-09T04:57:14.555Z,17.30
2018-05-09T04:59:42.821Z,17.40
2018-05-09T05:02:11.130Z,17.50
2018-05-09T05:04:39.388Z,17.60
2018-05-09T05:07:07.688Z,17.70
2018-05-09T05:09:37.052Z,17.70
2018-05-09T05:12:05.344Z,17.80
2018-05-09T05:14:33.611Z,17.80
2018-05-09T05:17:02.730Z,17.90
2018-05-09T05:19:31.002Z,17.90
2018-05-09T05:21:59.305Z,17.90
2018-05-09T05:24:27.583Z,17.90
2018-05-09T05:26:56.641Z,18.00
2018-05-09T05:29:24.935Z,18.00
2018-05-09T05:31:53.195Z,18.00
2018-05-09T05:34:21.477Z,18.10
2018-05-09T05:36:49.792Z,18.10
2018-05-09T05:39:18.075Z,18.10
2018-05-09T05:41:47.099Z,18.20
2018-05-09T05:44:15.414Z,18.10
2018-05-09T05:46:43.674Z,18.20
2018-05-09T05:49:11.997Z,18.30
2018-05-09T05:51:40.278Z,18.40
2018-05-09T05:54:09.437Z,18.60
2018-05-09T05:56:37.743Z,18.70
2018-05-09T05:59:05.991Z,18.70
2018-05-09T06:01:34.271Z,18.80
2018-05-09T06:04:02.528Z,18.80
2018-05-09T06:06:30.859Z,18.90
2018-05-09T06:08:59.124Z,19.00
2018-05-09T06:11:27.405Z,19.10
2018-05-09T06:13:55.654Z,19.20
2018-05-09T06:16:23.978Z,19.20
2018-05-09T06:18:52.224Z,19.30
2018-05-09T06:21:20.543Z,19.30
2018-05-09T06:23:49.631Z,19.30
2018-05-09T06:26:18.781Z,19.40
2018-05-09T06:28:47.046Z,19.50
2018-05-09T06:31:15.342Z,19.40
2018-05-09T06:33:43.644Z,19.50
2018-05-09T06:36:12.004Z,19.60
2018-05-09T06:38:40.303Z,19.70
2018-05-09T06:41:08.550Z,19.70
2018-05-09T06:43:36.852Z,19.80
2018-05-09T06:46:05.165Z,19.90
2018-05-09T06:48:33.450Z,20.00
2018-05-09T06:51:01.744Z,20.10
2018-05-09T06:53:30.039Z,20.20
2018-05-09T06:55:58.302Z,20.50
2018-05-09T06:58:26.576Z,20.40
2018-05-09T07:00:54.871Z,20.50
2018-05-09T07:03:23.142Z,20.60
2018-05-09T07:05:51.440Z,20.70
2018-05-09T07:08:19.699Z,20.80
2018-05-09T07:10:47.985Z,20.80
2018-05-09T07:13:16.243Z,20.90
2018-05-09T07:15:44.527Z,21.00
2018-05-09T07:18:12.805Z,21.00
2018-05-09T07:20:41.123Z,21.10
2018-05-09T07:23:09.490Z,21.30
2018-05-09T07:25:38.514Z,21.40
2018-05-09T07:28:06.795Z,21.50
2018-05-09T07:30:35.048Z,21.60
2018-05-09T07:33:03.351Z,21.70
2018-05-09T07:35:31.685Z,21.70
2018-05-09T07:38:00.696Z,22.00
2018-05-09T07:40:28.972Z,22.00
2018-05-09T07:42:57.273Z,22.20
2018-05-09T07:45:25.545Z,22.30
2018-05-09T07:47:53.957Z,22.40
2018-05-09T07:50:22.905Z,22.50
2018-05-09T07:52:51.171Z,22.40
2018-05-09T07:55:19.447Z,22.50
2018-05-09T07:57:47.768Z,22.60
2018-05-09T08:00:16.079Z,22.70
2018-05-09T08:02:44.613Z,22.80
2018-05-09T08:05:12.894Z,22.90
2018-05-09T08:07:41.150Z,23.10
2018-05-09T08:10:09.449Z,23.30
2018-05-09T08:12:37.712Z,23.50
2018-05-09T08:15:06.016Z,23.60
2018-05-09T08:17:34.278Z,23.80
2018-05-09T08:20:02.554Z,23.80
2018-05-09T08:22:30.831Z,23.90
2018-05-09T08:24:59.123Z,24.00
2018-05-09T08:27:27.431Z,24.00
2018-05-09T08:29:56.483Z,24.10
2018-05-09T08:32:24.783Z,24.10
2018-05-09T08:34:53.056Z,24.30
2018-05-09T08:37:21.361Z,24.30
2018-05-09T08:39:50.382Z,24.50
2018-05-09T08:42:18.639Z,24.40
2018-05-09T08:44:46.978Z,24.50
2018-05-09T08:47:15.239Z,24.50
2018-05-09T08:49:43.532Z,24.50
2018-05-09T08:52:11.779Z,24.50
2018-05-09T08:54:40.071Z,24.50
2018-05-09T08:57:08.344Z,24.60
2018-05-09T08:59:37.413Z,24.80
2018-05-09T09:02:06.511Z,24.80
2018-05-09T09:04:34.760Z,24.80
2018-05-09T09:07:03.833Z,24.80
2018-05-09T09:09:32.088Z,24.80
2018-05-09T09:12:00.406Z,24.90
2018-05-09T09:14:29.685Z,24.90
2018-05-09T09:16:57.979Z,25.00
2018-05-09T09:19:26.254Z,25.10
2018-05-09T09:21:54.574Z,25.10
2018-05-09T09:24:22.846Z,25.30
2018-05-09T09:26:51.123Z,25.50
2018-05-09T09:29:19.482Z,25.80
2018-05-09T09:31:47.707Z,25.90
2018-05-09T09:34:16.022Z,26.00
2018-05-09T09:36:45.054Z,26.10
2018-05-09T09:39:13.339Z,26.10
2018-05-09T09:41:41.598Z,26.20
2018-05-09T09:44:10.669Z,26.30
2018-05-09T09:46:38.944Z,26.20
2018-05-09T09:49:07.209Z,26.20
2018-05-09T09:51:35.495Z,26.10
2018-05-09T09:54:03.776Z,26.20
2018-05-09T09:56:32.086Z,26.20
2018-05-09T09:59:01.169Z,26.20
2018-05-09T10:01:30.286Z,26.30
2018-05-09T10:03:58.546Z,26.30
2018-05-09T10:06:26.830Z,26.30
2018-05-09T10:08:55.122Z,26.30
2018-05-09T10:11:23.395Z,26.40
2018-05-09T10:13:51.639Z,26.40
2018-05-09T10:16:19.995Z,26.40
2018-05-09T10:18:48.180Z,26.40
2018-05-09T10:21:16.471Z,26.40
2018-05-09T10:23:44.738Z,26.50
2018-05-09T10:26:13.020Z,26.50
2018-05-09T10:28:41.312Z,26.60
2018-05-09T10:31:09.594Z,26.70
2018-05-09T10:33:37.867Z,26.90
2018-05-09T10:36:06.158Z,27.00
2018-05-09T10:38:35.193Z,27.30
2018-05-09T10:41:03.500Z,27.30
2018-05-09T10:43:31.775Z,27.30
2018-05-09T10:46:00.025Z,27.50
2018-05-09T10:48:28.340Z,27.70
2018-05-09T10:50:56.635Z,27.70
2018-05-09T10:53:25.691Z,27.90
2018-05-09T10:55:53.984Z,27.90
2018-05-09T10:58:23.193Z,28.00
2018-05-09T11:00:51.451Z,28.10
2018-05-09T11:03:20.512Z,28.30
2018-05-09T11:05:48.769Z,28.20
2018-05-09T11:08:17.831Z,28.50
2018-05-09T11:10:46.129Z,28.50
2018-05-09T11:13:14.382Z,28.70
2018-05-09T11:15:42.658Z,28.80
2018-05-09T11:18:10.909Z,28.80
2018-05-09T11:20:39.211Z,28.80
2018-05-09T11:23:07.486Z,28.80
2018-05-09T11:25:35.762Z,28.90
2018-05-09T11:28:04.045Z,29.10
2018-05-09T11:30:32.347Z,29.50
2018-05-09T11:33:00.762Z,29.80
2018-05-09T11:35:29.796Z,30.40
2018-05-09T11:37:58.101Z,30.40
2018-05-09T11:40:26.383Z,31.00
2018-05-09T11:42:55.728Z,32.20
2018-05-09T11:45:23.971Z,32.10
2018-05-09T11:47:52.268Z,32.50
2018-05-09T11:50:21.293Z,33.30
2018-05-09T11:52:49.611Z,33.20
2018-05-09T11:55:17.886Z,33.50
2018-05-09T11:57:46.203Z,33.40
2018-05-09T12:00:14.472Z,33.20
2018-05-09T12:02:43.502Z,33.70
2018-05-09T12:05:11.818Z,33.70
2018-05-09T12:07:40.105Z,34.50
2018-05-09T12:10:08.382Z,34.40
2018-05-09T12:12:36.670Z,34.80
2018-05-09T12:15:04.941Z,35.70
2018-05-09T12:17:33.209Z,36.80
2018-05-09T12:20:01.492Z,37.30
2018-05-09T12:22:30.523Z,38.50
2018-05-09T12:24:58.833Z,38.50
2018-05-09T12:27:27.080Z,38.10
2018-05-09T12:29:55.353Z,37.20
2018-05-09T12:32:23.647Z,36.20
2018-05-09T12:34:51.925Z,35.30
2018-05-09T12:37:20.196Z,34.50
2018-05-09T12:39:48.619Z,34.00
2018-05-09T12:42:16.950Z,33.80
2018-05-09T12:44:45.278Z,34.20
2018-05-09T12:47:13.569Z,34.80
2018-05-09T12:49:41.873Z,35.60
2018-05-09T12:52:10.180Z,36.40
2018-05-09T12:54:39.009Z,37.00
2018-05-09T12:57:08.546Z,38.40
2018-05-09T12:59:37.598Z,39.30
2018-05-09T13:02:06.076Z,39.20
2018-05-09T13:04:34.458Z,40.10
2018-05-09T13:07:02.736Z,40.10
2018-05-09T13:09:31.092Z,40.20
2018-05-09T13:11:59.488Z,40.40
2018-05-09T13:14:27.861Z,40.80
2018-05-09T13:16:56.305Z,41.10
2018-05-09T13:19:24.611Z,41.30
2018-05-09T13:21:52.887Z,41.10
2018-05-09T13:24:22.161Z,40.40
2018-05-09T13:26:50.892Z,39.20
2018-05-09T13:29:19.204Z,37.90
2018-05-09T13:31:47.554Z,36.60
2018-05-09T13:34:15.738Z,35.40
2018-05-09T13:36:44.033Z,34.40
2018-05-09T13:39:12.349Z,33.50
2018-05-09T13:41:40.647Z,32.70
2018-05-09T13:44:08.919Z,32.00
2018-05-09T13:46:37.226Z,31.40
2018-05-09T13:49:05.519Z,30.90
2018-05-09T13:51:33.912Z,30.40
2018-05-09T13:54:02.203Z,29.90
2018-05-09T13:56:30.492Z,29.50
2018-05-09T13:58:59.557Z,29.40
2018-05-09T14:01:27.829Z,29.40
2018-05-09T14:03:56.108Z,30.00
2018-05-09T14:06:25.477Z,30.90
2018-05-09T14:08:54.440Z,32.20
2018-05-09T14:11:23.482Z,33.80
2018-05-09T14:13:51.774Z,33.80
2018-05-09T14:16:20.026Z,34.50
2018-05-09T14:18:48.341Z,35.10
2018-05-09T14:21:16.707Z,35.30
2018-05-09T14:23:45.149Z,35.80
2018-05-09T14:26:13.426Z,36.30
2018-05-09T14:28:41.748Z,36.90
2018-05-09T14:31:10.066Z,36.70
2018-05-09T14:33:39.220Z,35.50
2018-05-09T14:36:08.091Z,35.60
2018-05-09T14:38:37.136Z,35.10
2018-05-09T14:41:05.480Z,35.30
2018-05-09T14:43:33.756Z,35.80
2018-05-09T14:46:02.445Z,36.50
2018-05-09T14:48:30.740Z,37.00
2018-05-09T14:50:59.039Z,37.50
2018-05-09T14:53:27.376Z,37.90
2018-05-09T14:55:56.480Z,38.30
2018-05-09T14:58:24.935Z,38.20
2018-05-09T15:00:53.277Z,38.20
2018-05-09T15:03:21.679Z,38.00
2018-05-09T15:05:49.981Z,37.90
2018-05-09T15:08:18.293Z,37.60
2018-05-09T15:10:46.572Z,37.40
2018-05-09T15:13:15.665Z,37.40
2018-05-09T15:15:47.776Z,37.50
2018-05-09T15:18:16.132Z,37.70
2018-05-09T15:20:44.423Z,37.60
2018-05-09T15:23:12.704Z,37.60
2018-05-09T15:25:41.977Z,37.30
2018-05-09T15:28:10.238Z,37.40
2018-05-09T15:30:38.538Z,37.70
2018-05-09T15:33:06.814Z,37.20
2018-05-09T15:35:35.109Z,37.10
2018-05-09T15:38:04.138Z,37.10
2018-05-09T15:40:32.406Z,37.10
2018-05-09T15:43:00.770Z,37.20
2018-05-09T15:45:30.280Z,37.30
2018-05-09T15:47:59.379Z,37.10
2018-05-09T15:50:28.423Z,36.60
2018-05-09T15:52:56.759Z,36.60
2018-05-09T15:55:25.042Z,36.30
2018-05-09T15:57:53.345Z,36.20
2018-05-09T16:00:22.422Z,36.30
2018-05-09T16:02:50.692Z,35.80
2018-05-09T16:05:19.973Z,35.40
2018-05-09T16:07:48.247Z,35.30
2018-05-09T16:10:17.327Z,34.70
2018-05-09T16:12:45.587Z,34.70
2018-05-09T16:15:14.115Z,34.20
2018-05-09T16:17:42.407Z,33.50
2018-05-09T16:20:10.713Z,33.00
2018-05-09T16:22:39.024Z,32.80
2018-05-09T16:25:08.382Z,32.90
2018-05-09T16:27:36.668Z,33.20
2018-05-09T16:30:04.987Z,33.50
2018-05-09T16:32:33.252Z,33.80
2018-05-09T16:35:01.527Z,33.90
2018-05-09T16:37:29.816Z,34.10
2018-05-09T16:39:58.512Z,34.10
2018-05-09T16:42:26.867Z,34.00
2018-05-09T16:44:55.140Z,34.00
2018-05-09T16:47:23.494Z,34.10
2018-05-09T16:49:52.645Z,34.20
2018-05-09T16:52:32.626Z,34.30
2018-05-09T16:55:00.959Z,34.30
2018-05-09T16:57:29.213Z,34.30
2018-05-09T16:59:57.492Z,34.10
2018-05-09T17:02:25.768Z,33.70
2018-05-09T17:04:54.853Z,32.80
2018-05-09T17:07:23.187Z,32.80
2018-05-09T17:09:51.490Z,32.60
2018-05-09T17:12:20.108Z,32.50
2018-05-09T17:14:48.539Z,32.30
2018-05-09T17:17:17.586Z,32.10
2018-05-09T17:19:45.909Z,32.10
2018-05-09T17:22:28.097Z,32.10
2018-05-09T17:24:56.339Z,32.00
2018-05-09T17:27:24.633Z,31.90
2018-05-09T17:29:52.910Z,31.80
2018-05-09T17:32:21.254Z,31.50
2018-05-09T17:34:50.281Z,31.20
2018-05-09T17:37:18.574Z,31.20
2018-05-09T17:39:46.827Z,31.10
2018-05-09T17:42:15.133Z,30.80
2018-05-09T17:44:43.408Z,30.60
2018-05-09T17:47:11.676Z,30.30
2018-05-09T17:49:39.997Z,29.90
2018-05-09T17:52:08.298Z,29.60
2018-05-09T17:54:37.280Z,29.30
2018-05-09T17:57:06.389Z,28.80
2018-05-09T17:59:34.711Z,28.70
2018-05-09T18:02:03.896Z,28.60
2018-05-09T18:04:32.397Z,28.30
2018-05-09T18:07:00.652Z,28.10
2018-05-09T18:09:29.456Z,27.90
2018-05-09T18:11:58.147Z,27.70
2018-05-09T18:14:26.411Z,27.60
2018-05-09T18:16:55.041Z,27.40
2018-05-09T18:19:23.316Z,27.20
2018-05-09T18:21:53.074Z,27.10
2018-05-09T18:24:21.351Z,26.90
2018-05-09T18:26:49.699Z,26.70
2018-05-09T18:29:17.997Z,26.60
2018-05-09T18:31:46.288Z,26.40
2018-05-09T18:34:14.580Z,26.20
2018-05-09T18:36:42.890Z,26.10
2018-05-09T18:39:11.185Z,26.00
2018-05-09T18:41:40.275Z,25.70
2018-05-09T18:44:10.541Z,25.70
2018-05-09T18:46:39.544Z,25.50
2018-05-09T18:49:07.965Z,25.40
2018-05-09T18:51:36.236Z,25.40
2018-05-09T18:54:04.634Z,25.30
2018-05-09T18:56:32.833Z,25.20
2018-05-09T18:59:01.919Z,25.10
2018-05-09T19:01:30.211Z,25.10
2018-05-09T19:03:58.530Z,25.00
2018-05-09T19:06:26.938Z,24.90
2018-05-09T19:08:55.914Z,24.80
2018-05-09T19:11:24.244Z,24.70
2018-05-09T19:13:53.278Z,24.60
2018-05-09T19:16:21.619Z,24.60
2018-05-09T19:18:49.863Z,24.50
2018-05-09T19:21:18.220Z,24.50
2018-05-09T19:23:46.532Z,24.40
2018-05-09T19:26:14.971Z,24.30
2018-05-09T19:28:43.297Z,24.20
2018-05-09T19:31:12.413Z,24.20
2018-05-09T19:33:40.717Z,24.10
2018-05-09T19:36:09.998Z,24.00
2018-05-09T19:38:38.336Z,24.00
2018-05-09T19:41:06.591Z,23.90
2018-05-09T19:43:35.841Z,23.90
2018-05-09T19:46:04.878Z,23.90
2018-05-09T19:48:33.216Z,23.90
2018-05-09T19:51:01.630Z,23.80
2018-05-09T19:53:29.954Z,23.80
2018-05-09T19:56:00.206Z,23.80
2018-05-09T19:58:28.548Z,23.80
2018-05-09T20:00:56.870Z,23.70
2018-05-09T20:03:25.699Z,23.70
2018-05-09T20:05:54.028Z,23.70
2018-05-09T20:08:22.309Z,23.70
2018-05-09T20:10:51.355Z,23.60
2018-05-09T20:13:19.632Z,23.60
2018-05-09T20:15:48.132Z,23.60
2018-05-09T20:18:16.978Z,23.60
2018-05-09T20:20:45.275Z,23.60
2018-05-09T20:23:14.176Z,23.50
2018-05-09T20:25:42.727Z,23.50
2018-05-09T20:28:11.183Z,23.40
2018-05-09T20:30:45.127Z,23.40
2018-05-09T20:33:13.489Z,23.40
2018-05-09T20:35:41.980Z,23.40
2018-05-09T20:38:10.858Z,23.30
2018-05-09T20:40:39.213Z,23.30
2018-05-09T20:43:12.668Z,23.30
2018-05-09T20:45:41.374Z,23.20
2018-05-09T20:48:09.671Z,23.20
2018-05-09T20:50:38.009Z,23.20
2018-05-09T20:53:06.301Z,23.10
2018-05-09T20:55:36.482Z,23.10
2018-05-09T20:58:05.540Z,23.00
2018-05-09T21:00:33.885Z,23.00
2018-05-09T21:03:02.175Z,23.00
2018-05-09T21:05:30.568Z,22.90
2018-05-09T21:07:59.309Z,22.90
2018-05-09T21:10:29.580Z,22.90
2018-05-09T21:12:57.894Z,22.80
2018-05-09T21:15:26.205Z,22.80
2018-05-09T21:17:54.511Z,22.70
2018-05-09T21:20:22.836Z,22.70
2018-05-09T21:22:51.158Z,22.70
2018-05-09T21:25:19.444Z,22.70
2018-05-09T21:27:47.874Z,22.60
2018-05-09T21:30:16.137Z,22.60
2018-05-09T21:32:47.875Z,22.60
2018-05-09T21:35:16.172Z,22.50
2018-05-09T21:37:45.199Z,22.30
2018-05-09T21:40:13.525Z,22.40
2018-05-09T21:42:44.607Z,22.30
2018-05-09T21:45:13.737Z,22.20
2018-05-09T21:47:42.234Z,21.90
2018-05-09T21:50:10.528Z,22.00
2018-05-09T21:52:38.815Z,22.00
2018-05-09T21:55:07.176Z,22.00
2018-05-09T21:57:35.424Z,22.20
2018-05-09T22:00:03.796Z,21.80
2018-05-09T22:02:32.048Z,21.80
2018-05-09T22:05:00.319Z,21.70
2018-05-09T22:07:29.395Z,21.60
2018-05-09T22:09:57.664Z,21.60
2018-05-09T22:12:26.031Z,21.60
2018-05-09T22:14:54.381Z,21.50
2018-05-09T22:17:22.689Z,21.50
2018-05-09T22:19:51.175Z,21.40
2018-05-09T22:22:19.481Z,21.40
2018-05-09T22:24:47.768Z,21.30
2018-05-09T22:27:16.837Z,21.20
2018-05-09T22:29:45.151Z,21.20
2018-05-09T22:32:13.429Z,21.10
2018-05-09T22:34:41.750Z,21.10
2018-05-09T22:37:10.954Z,21.10
2018-05-09T22:39:39.262Z,21.00
2018-05-09T22:42:07.551Z,21.00
2018-05-09T22:44:35.843Z,21.00
2018-05-09T22:47:04.882Z,20.90
2018-05-09T22:49:34.131Z,20.90
2018-05-09T22:52:02.401Z,20.90
2018-05-09T22:54:30.739Z,20.80
2018-05-09T22:56:59.135Z,20.80
2018-05-09T22:59:27.394Z,20.80
2018-05-09T23:01:55.692Z,20.80
2018-05-09T23:04:23.962Z,20.80
2018-05-09T23:06:52.260Z,20.70
2018-05-09T23:09:20.544Z,20.70
2018-05-09T23:11:48.915Z,20.60
2018-05-09T23:14:17.135Z,20.60
2018-05-09T23:16:51.715Z,20.60
2018-05-09T23:19:20.010Z,20.50
2018-05-09T23:21:48.285Z,20.50
2018-05-09T23:24:16.607Z,20.40
2018-05-09T23:26:44.883Z,20.30
2018-05-09T23:29:13.177Z,20.30
2018-05-09T23:31:41.460Z,20.30
2018-05-09T23:34:09.747Z,20.20
2018-05-09T23:36:38.014Z,20.20
2018-05-09T23:39:06.348Z,20.20
2018-05-09T23:41:34.640Z,20.20
2018-05-09T23:44:02.941Z,20.10
2018-05-09T23:46:31.234Z,20.10
2018-05-09T23:48:59.507Z,20.10
2018-05-09T23:51:27.796Z,20.00
2018-05-09T23:53:56.084Z,20.00
2018-05-09T23:56:24.401Z,19.90
2018-05-09T23:58:52.685Z,19.90
